Central Village, Connecticut
Current Conditions -  °F | °C
As of 1:52 AM on Monday 24 Nov 2014 (Local Time) from KIJD Reporting Station
Overcast Overcast  
Wind Chill: 39°   Ceiling: 600
Heat Index: 39°   Visibility: 10mi
Dew Point: 31°   Wind: 0mph
Humidity: 73%   Direction: NA
Pressure: 30.02"   Gusts: NA
Location:  41.72°N, 71.91°W
Report Text: KIJD 240652Z AUTO 00000KT 10SM OVC006 04/M01 A3002 RMK AO2 SLP166 T00391006
Loading
Personal Weather Stations






























Interactive Weather Map New forecast layout! Learn more

10-Day Weather Forecast

Advertisements
Track Severe Weather on mobile